createdAt,value
2023-09-03T00:02:24.508Z,1.02
2023-09-03T00:04:51.507Z,1.02
2023-09-03T00:07:18.540Z,1.30
2023-09-03T00:09:45.542Z,0.88
2023-09-03T00:12:13.000Z,1.15
2023-09-03T00:14:39.972Z,1.40
2023-09-03T00:17:07.002Z,1.42
2023-09-03T00:19:34.229Z,1.40
2023-09-03T00:22:02.890Z,1.27
2023-09-03T00:24:34.198Z,1.52
2023-09-03T00:27:01.439Z,1.00
2023-09-03T00:29:28.671Z,1.35
2023-09-03T00:31:56.861Z,1.98
2023-09-03T00:34:23.844Z,1.30
2023-09-03T00:36:50.898Z,1.88
2023-09-03T00:39:20.128Z,1.50
2023-09-03T00:41:47.505Z,1.65
2023-09-03T00:44:15.433Z,1.70
2023-09-03T00:46:43.980Z,1.60
2023-09-03T00:49:13.494Z,1.17
2023-09-03T00:51:41.000Z,1.35
2023-09-03T00:54:09.453Z,1.83
2023-09-03T00:56:36.946Z,1.60
2023-09-03T00:59:04.121Z,1.42
2023-09-03T01:01:31.816Z,1.50
2023-09-03T01:03:59.022Z,1.15
2023-09-03T01:06:26.453Z,1.50
2023-09-03T01:08:53.953Z,1.30
2023-09-03T01:11:48.281Z,1.50
2023-09-03T01:14:38.119Z,1.35
2023-09-03T01:17:36.214Z,1.55
2023-09-03T01:20:31.390Z,1.48
2023-09-03T01:23:10.326Z,1.40
2023-09-03T01:26:00.327Z,1.75
2023-09-03T01:28:39.964Z,1.30
2023-09-03T01:31:17.450Z,1.30
2023-09-03T01:33:46.925Z,1.13
2023-09-03T01:36:15.116Z,1.02
2023-09-03T01:38:42.388Z,0.93
2023-09-03T01:41:10.253Z,1.10
2023-09-03T01:43:37.466Z,1.52
2023-09-03T01:46:10.532Z,1.40
2023-09-03T01:48:56.704Z,1.50
2023-09-03T01:51:53.626Z,1.63
2023-09-03T01:54:32.263Z,1.63
2023-09-03T01:57:06.930Z,1.70
2023-09-03T01:59:44.682Z,1.85
2023-09-03T02:02:13.595Z,1.60
2023-09-03T02:04:40.992Z,1.35
2023-09-03T02:07:08.164Z,1.50
2023-09-03T02:09:35.714Z,1.35
2023-09-03T02:12:03.749Z,1.50
2023-09-03T02:14:30.738Z,1.25
2023-09-03T02:16:57.879Z,1.42
2023-09-03T02:19:25.219Z,1.15
2023-09-03T02:21:52.799Z,1.30
2023-09-03T02:24:20.112Z,1.30
2023-09-03T02:26:48.256Z,2.17
2023-09-03T02:29:15.657Z,1.58
2023-09-03T02:31:42.749Z,1.58
2023-09-03T02:34:15.151Z,1.88
2023-09-03T02:36:42.333Z,1.30
2023-09-03T02:39:10.138Z,1.20
2023-09-03T02:41:37.237Z,1.60
2023-09-03T02:44:04.408Z,1.23
2023-09-03T02:46:31.663Z,1.60
2023-09-03T02:49:00.043Z,1.50
2023-09-03T02:51:27.144Z,1.38
2023-09-03T02:53:56.105Z,1.40
2023-09-03T02:56:24.094Z,1.65
2023-09-03T02:58:52.158Z,1.40
2023-09-03T03:01:21.632Z,1.25
2023-09-03T03:03:49.532Z,1.23
2023-09-03T03:06:17.402Z,1.50
2023-09-03T03:08:45.059Z,1.10
2023-09-03T03:11:18.518Z,1.20
2023-09-03T03:14:03.513Z,1.20
2023-09-03T03:16:34.504Z,1.30
2023-09-03T03:19:06.327Z,1.17
2023-09-03T03:21:34.993Z,1.58
2023-09-03T03:24:07.017Z,1.65
2023-09-03T03:26:39.400Z,1.20
2023-09-03T03:29:10.711Z,1.20
2023-09-03T03:31:44.226Z,1.10
2023-09-03T03:34:12.740Z,1.48
2023-09-03T03:36:41.275Z,1.13
2023-09-03T03:39:08.225Z,1.35
2023-09-03T03:41:37.678Z,1.40
2023-09-03T03:44:05.829Z,1.30
2023-09-03T03:46:32.825Z,1.10
2023-09-03T03:49:01.097Z,1.15
2023-09-03T03:51:28.399Z,1.10
2023-09-03T03:53:56.503Z,1.10
2023-09-03T03:56:23.596Z,1.45
2023-09-03T03:58:51.119Z,0.95
2023-09-03T04:01:24.581Z,0.98
2023-09-03T04:03:55.908Z,1.45
2023-09-03T04:06:23.603Z,1.20
2023-09-03T04:08:50.604Z,1.38
2023-09-03T04:11:21.721Z,1.27
2023-09-03T04:13:48.857Z,1.10
2023-09-03T04:16:18.973Z,1.30
2023-09-03T04:18:50.207Z,1.52
2023-09-03T04:21:17.847Z,1.08
2023-09-03T04:23:45.271Z,1.20
2023-09-03T04:26:12.458Z,1.10
2023-09-03T04:28:44.663Z,1.27
2023-09-03T04:31:13.237Z,1.10
2023-09-03T04:33:41.660Z,0.90
2023-09-03T04:36:11.321Z,1.10
2023-09-03T04:38:38.567Z,1.25
2023-09-03T04:41:06.845Z,1.38
2023-09-03T04:43:48.288Z,1.00
2023-09-03T04:46:20.071Z,1.30
2023-09-03T04:48:47.265Z,0.98
2023-09-03T04:51:14.641Z,1.25
2023-09-03T04:53:42.493Z,1.35
2023-09-03T04:56:13.696Z,1.42
2023-09-03T04:58:42.404Z,1.42
2023-09-03T05:01:17.156Z,1.20
2023-09-03T05:03:47.016Z,1.55
2023-09-03T05:06:17.349Z,1.20
2023-09-03T05:08:46.672Z,1.70
2023-09-03T05:11:16.180Z,1.20
2023-09-03T05:13:45.153Z,1.50
2023-09-03T05:16:13.446Z,1.52
2023-09-03T05:18:42.665Z,1.70
2023-09-03T05:21:11.206Z,1.50
2023-09-03T05:23:39.132Z,1.73
2023-09-03T05:26:06.979Z,1.92
2023-09-03T05:28:36.579Z,1.80
2023-09-03T05:31:03.712Z,2.05
2023-09-03T05:33:32.102Z,1.60
2023-09-03T05:35:59.471Z,1.40
2023-09-03T05:38:26.604Z,1.92
2023-09-03T05:40:54.207Z,2.00
2023-09-03T05:43:24.230Z,1.58
2023-09-03T05:45:54.266Z,2.10
2023-09-03T05:48:21.748Z,1.80
2023-09-03T05:50:49.149Z,1.67
2023-09-03T05:53:16.854Z,1.80
2023-09-03T05:55:43.933Z,1.90
2023-09-03T05:58:11.013Z,2.22
2023-09-03T06:00:44.217Z,2.20
2023-09-03T06:03:12.199Z,1.90
2023-09-03T06:05:39.373Z,1.92
2023-09-03T06:08:07.553Z,1.60
2023-09-03T06:10:37.810Z,2.38
2023-09-03T06:13:05.065Z,3.33
2023-09-03T06:15:32.131Z,2.95
2023-09-03T06:18:00.775Z,2.65
2023-09-03T06:20:27.880Z,2.28
2023-09-03T06:22:54.871Z,2.72
2023-09-03T06:25:21.924Z,2.42
2023-09-03T06:27:48.891Z,2.05
2023-09-03T06:30:15.864Z,3.03
2023-09-03T06:32:43.313Z,2.30
2023-09-03T06:35:10.335Z,2.60
2023-09-03T06:37:37.342Z,2.50
2023-09-03T06:40:04.835Z,2.65
2023-09-03T06:42:31.896Z,2.10
2023-09-03T06:44:58.911Z,2.53
2023-09-03T06:47:26.057Z,2.30
2023-09-03T06:49:53.405Z,2.38
2023-09-03T06:52:21.013Z,2.65
2023-09-03T06:54:48.497Z,2.85
2023-09-03T06:57:28.364Z,2.63
2023-09-03T06:59:56.997Z,2.85
2023-09-03T07:02:25.147Z,2.67
2023-09-03T07:04:52.730Z,2.80
2023-09-03T07:07:19.760Z,2.40
2023-09-03T07:09:46.846Z,3.08
2023-09-03T07:12:14.290Z,2.78
2023-09-03T07:14:41.297Z,2.53
2023-09-03T07:17:08.269Z,2.90
2023-09-03T07:19:35.263Z,2.55
2023-09-03T07:22:02.323Z,2.75
2023-09-03T07:24:29.292Z,2.22
2023-09-03T07:26:56.343Z,2.72
2023-09-03T07:29:23.353Z,2.65
2023-09-03T07:31:50.396Z,3.60
2023-09-03T07:34:17.719Z,4.50
2023-09-03T07:36:44.716Z,4.20
2023-09-03T07:39:11.898Z,4.45
2023-09-03T07:41:39.930Z,3.92
2023-09-03T07:44:08.459Z,4.00
2023-09-03T07:46:35.937Z,3.78
2023-09-03T07:49:03.052Z,3.63
2023-09-03T07:51:30.407Z,4.20
2023-09-03T07:53:57.641Z,3.17
2023-09-03T07:56:24.801Z,3.75
2023-09-03T07:58:51.788Z,3.10
2023-09-03T08:01:20.686Z,2.80
2023-09-03T08:03:48.162Z,2.72
2023-09-03T08:06:15.379Z,3.15
2023-09-03T08:08:42.583Z,2.95
2023-09-03T08:11:09.539Z,3.00
2023-09-03T08:13:37.128Z,3.13
2023-09-03T08:16:04.396Z,3.03
2023-09-03T08:18:31.542Z,2.78
2023-09-03T08:20:59.187Z,2.72
2023-09-03T08:23:26.418Z,3.17
2023-09-03T08:25:53.402Z,3.28
2023-09-03T08:28:20.373Z,2.90
2023-09-03T08:30:48.413Z,2.60
2023-09-03T08:33:15.551Z,2.45
2023-09-03T08:35:42.696Z,2.50
2023-09-03T08:38:10.301Z,2.22
2023-09-03T08:40:37.888Z,3.03
2023-09-03T08:43:08.266Z,2.63
2023-09-03T08:45:42.968Z,2.40
2023-09-03T08:48:11.226Z,2.38
2023-09-03T08:50:38.355Z,2.35
2023-09-03T08:53:05.538Z,2.53
2023-09-03T08:55:33.898Z,3.22
2023-09-03T08:58:02.488Z,2.40
2023-09-03T09:00:30.009Z,2.08
2023-09-03T09:03:01.665Z,2.33
2023-09-03T09:07:56.516Z,2.15
2023-09-03T09:10:29.629Z,2.60
2023-09-03T09:13:05.469Z,2.67
2023-09-03T09:15:32.693Z,2.47
2023-09-03T09:18:00.266Z,3.00
2023-09-03T09:20:27.336Z,2.45
2023-09-03T09:22:54.321Z,2.20
2023-09-03T09:25:28.219Z,2.20
2023-09-03T09:27:57.539Z,2.45
2023-09-03T09:30:26.677Z,2.10
2023-09-03T09:33:08.611Z,2.00
2023-09-03T09:35:36.347Z,2.67
2023-09-03T09:38:09.018Z,2.13
2023-09-03T09:40:37.618Z,1.92
2023-09-03T09:43:08.621Z,2.08
2023-09-03T09:45:51.723Z,1.73
2023-09-03T09:48:19.383Z,3.58
2023-09-03T09:50:48.967Z,1.83
2023-09-03T09:53:28.839Z,1.90
2023-09-03T09:56:10.901Z,2.03
2023-09-03T09:58:42.265Z,1.73
2023-09-03T10:01:10.391Z,2.53
2023-09-03T10:03:46.723Z,2.00
2023-09-03T10:06:19.291Z,1.63
2023-09-03T10:08:50.749Z,1.48
2023-09-03T10:11:20.441Z,1.48
2023-09-03T10:13:49.543Z,1.50
2023-09-03T10:16:21.002Z,1.38
2023-09-03T10:21:36.842Z,1.13
2023-09-03T10:24:14.752Z,1.80
2023-09-03T10:26:50.496Z,1.90
2023-09-03T10:29:21.194Z,1.10
2023-09-03T10:31:51.278Z,1.27
2023-09-03T10:34:18.545Z,1.83
2023-09-03T10:37:05.684Z,1.77
2023-09-03T10:39:36.950Z,1.50
2023-09-03T10:42:18.732Z,2.00
2023-09-03T10:45:01.041Z,1.15
2023-09-03T10:47:28.864Z,1.27
2023-09-03T10:49:56.744Z,1.65
2023-09-03T10:52:31.926Z,1.50
2023-09-03T10:55:20.379Z,1.77
2023-09-03T10:58:17.212Z,1.25
2023-09-03T11:01:23.997Z,1.50
2023-09-03T11:03:55.927Z,1.80
2023-09-03T11:06:25.053Z,1.23
2023-09-03T11:09:07.759Z,1.30
2023-09-03T11:11:36.426Z,1.55
2023-09-03T11:14:04.212Z,1.70
2023-09-03T11:16:37.226Z,2.33
2023-09-03T11:19:08.370Z,1.30
2023-09-03T11:21:37.192Z,1.65
2023-09-03T11:24:07.025Z,1.20
2023-09-03T11:26:35.385Z,1.20
2023-09-03T11:29:03.877Z,1.20
2023-09-03T11:31:31.596Z,1.30
2023-09-03T11:33:59.231Z,1.85
2023-09-03T11:36:26.682Z,1.67
2023-09-03T11:38:56.411Z,0.82
2023-09-03T11:41:23.763Z,0.90
2023-09-03T11:43:50.949Z,1.38
2023-09-03T11:46:19.391Z,1.60
2023-09-03T11:48:57.196Z,0.77
2023-09-03T11:51:28.756Z,1.52
2023-09-03T11:53:57.846Z,1.30
2023-09-03T11:56:26.926Z,0.88
2023-09-03T11:58:59.067Z,1.20
2023-09-03T12:01:26.368Z,1.00
2023-09-03T12:03:54.023Z,1.83
2023-09-03T12:06:22.141Z,1.20
2023-09-03T12:08:49.614Z,1.13
2023-09-03T12:11:16.614Z,1.25
2023-09-03T12:13:45.466Z,1.02
2023-09-03T12:16:17.450Z,1.05
2023-09-03T12:19:00.239Z,0.90
2023-09-03T12:21:37.899Z,0.88
2023-09-03T12:24:09.095Z,0.70
2023-09-03T12:26:38.095Z,0.70
2023-09-03T12:29:19.782Z,0.98
2023-09-03T12:31:46.894Z,0.98
2023-09-03T12:34:18.975Z,0.60
2023-09-03T12:36:58.006Z,0.80
2023-09-03T12:39:32.548Z,1.25
2023-09-03T12:42:00.841Z,0.80
2023-09-03T12:44:28.197Z,0.80
2023-09-03T12:46:56.390Z,0.93
2023-09-03T12:49:23.782Z,0.73
2023-09-03T12:51:50.882Z,0.90
2023-09-03T12:54:17.888Z,0.80
2023-09-03T12:56:45.051Z,1.10
2023-09-03T12:59:12.110Z,1.00
2023-09-03T13:01:40.978Z,1.00
2023-09-03T13:04:15.536Z,0.90
2023-09-03T13:06:43.145Z,0.80
2023-09-03T13:09:11.297Z,0.98
2023-09-03T13:11:38.809Z,0.52
2023-09-03T13:14:06.420Z,0.70
2023-09-03T13:16:34.247Z,1.00
2023-09-03T13:19:01.861Z,1.00
2023-09-03T13:21:29.149Z,1.20
2023-09-03T13:23:56.294Z,0.82
2023-09-03T13:26:23.238Z,0.77
2023-09-03T13:28:50.230Z,0.90
2023-09-03T13:31:22.636Z,1.00
2023-09-03T13:33:49.745Z,0.68
2023-09-03T13:36:18.332Z,0.90
2023-09-03T13:38:46.376Z,0.90
2023-09-03T13:41:13.490Z,0.70
2023-09-03T13:43:43.164Z,0.98
2023-09-03T13:46:10.464Z,0.90
2023-09-03T13:48:37.877Z,0.70
2023-09-03T13:51:12.519Z,0.88
2023-09-03T13:53:40.454Z,0.80
2023-09-03T13:56:08.476Z,0.80
2023-09-03T13:58:36.287Z,1.00
2023-09-03T14:01:10.476Z,0.65
2023-09-03T14:03:38.487Z,0.52
2023-09-03T14:06:09.107Z,0.85
2023-09-03T14:08:37.521Z,0.95
2023-09-03T14:11:04.732Z,0.80
2023-09-03T14:13:32.420Z,0.80
2023-09-03T14:16:00.224Z,1.00
2023-09-03T14:18:28.884Z,0.68
2023-09-03T14:20:56.186Z,0.82
2023-09-03T14:23:24.914Z,0.80
2023-09-03T14:25:52.355Z,1.02
2023-09-03T14:28:19.486Z,0.70
2023-09-03T14:30:47.078Z,0.88
2023-09-03T14:33:14.081Z,0.73
2023-09-03T14:35:41.122Z,1.00
2023-09-03T14:38:09.001Z,0.80
2023-09-03T14:40:36.728Z,0.93
2023-09-03T14:43:04.130Z,0.77
2023-09-03T14:45:32.140Z,1.52
2023-09-03T14:47:59.680Z,0.80
2023-09-03T14:50:26.659Z,0.65
2023-09-03T14:52:53.648Z,0.80
2023-09-03T14:55:23.903Z,0.90
2023-09-03T14:57:53.881Z,0.90
2023-09-03T15:00:21.401Z,1.00
2023-09-03T15:02:48.407Z,0.60
2023-09-03T15:05:15.506Z,0.77
2023-09-03T15:07:42.490Z,0.90
2023-09-03T15:10:09.830Z,0.90
2023-09-03T15:12:36.845Z,1.10
2023-09-03T15:15:05.188Z,0.95
2023-09-03T15:17:32.540Z,0.65
2023-09-03T15:20:00.831Z,0.70
2023-09-03T15:22:28.208Z,0.90
2023-09-03T15:24:55.231Z,1.30
2023-09-03T15:27:22.181Z,0.60
2023-09-03T15:29:49.163Z,0.80
2023-09-03T15:32:16.157Z,0.90
2023-09-03T15:34:43.677Z,1.17
2023-09-03T15:37:10.687Z,0.90
2023-09-03T15:39:38.620Z,1.10
2023-09-03T15:42:05.758Z,0.70
2023-09-03T15:44:32.826Z,0.93
2023-09-03T15:46:59.863Z,0.88
2023-09-03T15:49:27.015Z,0.93
2023-09-03T15:51:54.090Z,1.45
2023-09-03T15:54:25.469Z,1.08
2023-09-03T15:59:24.173Z,1.30
2023-09-03T16:01:54.373Z,0.95
2023-09-03T16:04:22.101Z,1.20
2023-09-03T16:06:49.088Z,1.08
2023-09-03T16:09:16.207Z,1.05
2023-09-03T16:11:43.285Z,1.10
2023-09-03T16:14:10.389Z,1.00
2023-09-03T16:16:37.403Z,1.17
2023-09-03T16:19:04.455Z,1.23
2023-09-03T16:21:33.447Z,1.30
2023-09-03T16:24:00.496Z,2.17
2023-09-03T16:26:27.500Z,1.30
2023-09-03T16:28:54.544Z,1.25
2023-09-03T16:31:21.750Z,1.25
2023-09-03T16:33:49.209Z,0.82
2023-09-03T16:36:16.432Z,1.30
2023-09-03T16:38:43.450Z,1.05
2023-09-03T16:41:10.504Z,1.27
2023-09-03T16:43:40.416Z,1.00
2023-09-03T16:46:10.152Z,1.20
2023-09-03T16:48:37.171Z,1.00
2023-09-03T16:51:04.162Z,1.10
2023-09-03T16:53:31.133Z,1.40
2023-09-03T16:55:58.241Z,0.98
2023-09-03T16:58:25.280Z,1.20
2023-09-03T17:00:52.969Z,1.13
2023-09-03T17:03:20.875Z,1.30
2023-09-03T17:05:48.369Z,1.30
2023-09-03T17:08:15.416Z,1.33
2023-09-03T17:10:42.445Z,1.10
2023-09-03T17:13:09.507Z,1.00
2023-09-03T17:15:43.112Z,1.25
2023-09-03T17:18:10.704Z,1.67
2023-09-03T17:20:43.904Z,1.17
2023-09-03T17:23:12.228Z,1.30
2023-09-03T17:25:39.321Z,1.40
2023-09-03T17:28:07.086Z,0.90
2023-09-03T17:30:34.458Z,1.42
2023-09-03T17:33:01.496Z,1.23
2023-09-03T17:35:28.528Z,1.25
2023-09-03T17:37:55.504Z,1.42
2023-09-03T17:40:22.567Z,1.70
2023-09-03T17:42:49.516Z,2.30
2023-09-03T17:45:16.531Z,1.73
2023-09-03T17:47:43.987Z,1.60
2023-09-03T17:50:11.312Z,1.25
2023-09-03T17:52:38.412Z,1.23
2023-09-03T17:55:06.114Z,1.10
2023-09-03T17:57:34.905Z,1.60
2023-09-03T18:00:03.939Z,1.20
2023-09-03T18:02:39.999Z,1.27
2023-09-03T18:05:07.614Z,1.33
2023-09-03T18:07:34.841Z,1.05
2023-09-03T18:10:02.084Z,1.15
2023-09-03T18:12:30.420Z,1.30
2023-09-03T18:21:18.898Z,1.00
2023-09-03T18:23:46.539Z,1.35
2023-09-03T18:26:13.688Z,1.30
2023-09-03T18:28:45.051Z,1.45
2023-09-03T18:31:14.346Z,1.13
2023-09-03T18:33:41.608Z,1.30
2023-09-03T18:36:08.828Z,1.10
2023-09-03T18:38:36.088Z,1.20
2023-09-03T18:41:03.556Z,1.20
2023-09-03T18:43:30.540Z,1.10
2023-09-03T18:46:00.902Z,1.13
2023-09-03T18:54:20.914Z,1.20
2023-09-03T18:56:48.724Z,1.02
2023-09-03T18:59:17.699Z,0.93
2023-09-03T19:01:44.870Z,1.25
2023-09-03T19:04:14.439Z,1.15
2023-09-03T19:06:41.452Z,1.70
2023-09-03T19:09:08.452Z,1.15
2023-09-03T19:11:35.610Z,1.30
2023-09-03T19:14:04.093Z,1.00
2023-09-03T19:16:31.768Z,1.30
2023-09-03T19:18:59.206Z,1.80
2023-09-03T19:21:27.168Z,1.80
2023-09-03T19:23:54.125Z,1.40
2023-09-03T19:26:21.192Z,1.20
2023-09-03T19:28:49.851Z,1.35
2023-09-03T19:31:17.077Z,1.20
2023-09-03T19:33:44.411Z,1.02
2023-09-03T19:36:12.390Z,1.73
2023-09-03T19:38:39.859Z,1.35
2023-09-03T19:41:07.126Z,1.50
2023-09-03T19:43:34.806Z,1.50
2023-09-03T19:46:02.660Z,1.40
2023-09-03T19:48:35.237Z,1.63
2023-09-03T19:51:02.992Z,1.30
2023-09-03T19:53:31.991Z,1.88
2023-09-03T19:56:06.897Z,1.60
2023-09-03T19:58:34.601Z,1.20
2023-09-03T20:01:06.315Z,1.60
2023-09-03T20:06:04.586Z,1.60
2023-09-03T20:08:32.524Z,1.73
2023-09-03T20:11:04.593Z,1.58
2023-09-03T20:13:32.751Z,1.42
2023-09-03T20:16:01.682Z,1.45
2023-09-03T20:18:29.437Z,1.90
2023-09-03T20:20:59.169Z,1.30
2023-09-03T20:23:26.398Z,1.50
2023-09-03T20:26:06.103Z,1.25
2023-09-03T20:28:45.780Z,1.50
2023-09-03T20:31:15.865Z,1.70
2023-09-03T20:33:43.906Z,2.10
2023-09-03T20:36:11.385Z,2.42
2023-09-03T20:38:38.768Z,1.40
2023-09-03T20:41:05.882Z,1.80
2023-09-03T20:43:33.257Z,1.20
2023-09-03T20:46:01.016Z,1.75
2023-09-03T20:48:29.362Z,1.90
2023-09-03T20:51:01.189Z,1.30
2023-09-03T20:53:28.276Z,1.80
2023-09-03T20:55:56.464Z,1.80
2023-09-03T20:58:24.748Z,1.20
2023-09-03T21:00:52.886Z,1.55
2023-09-03T21:09:39.361Z,1.98
2023-09-03T21:12:06.803Z,1.58
2023-09-03T21:14:34.127Z,1.25
2023-09-03T21:17:01.350Z,1.58
2023-09-03T21:19:28.508Z,1.40
2023-09-03T21:21:56.015Z,1.50
2023-09-03T21:24:23.285Z,1.70
2023-09-03T21:26:50.478Z,1.55
2023-09-03T21:29:20.207Z,1.80
2023-09-03T21:31:47.322Z,1.92
2023-09-03T21:34:14.653Z,2.53
2023-09-03T21:36:41.835Z,1.38
2023-09-03T21:42:18.615Z,1.35
2023-09-03T21:44:45.711Z,1.50
2023-09-03T21:47:13.167Z,1.48
2023-09-03T21:49:41.344Z,1.80
2023-09-03T21:52:08.413Z,1.65
2023-09-03T21:54:51.241Z,1.40
2023-09-03T21:57:23.003Z,1.40
2023-09-03T21:59:50.044Z,1.15
2023-09-03T22:02:17.381Z,1.45
2023-09-03T22:04:44.963Z,1.95
2023-09-03T22:07:12.062Z,1.63
2023-09-03T22:12:28.361Z,1.50
2023-09-03T22:14:55.954Z,1.45
2023-09-03T22:17:25.549Z,1.60
2023-09-03T22:19:52.733Z,1.33
2023-09-03T22:22:22.287Z,1.45
2023-09-03T22:24:49.576Z,1.45
2023-09-03T22:27:16.678Z,1.92
2023-09-03T22:29:44.561Z,1.90
2023-09-03T22:32:11.667Z,1.55
2023-09-03T22:34:39.029Z,1.83
2023-09-03T22:37:06.609Z,1.50
2023-09-03T22:39:35.152Z,1.33
2023-09-03T22:42:02.985Z,1.60
2023-09-03T22:44:30.331Z,2.53
2023-09-03T22:46:58.051Z,1.88
2023-09-03T22:49:25.408Z,1.88
2023-09-03T22:51:52.770Z,1.77
2023-09-03T22:54:20.471Z,1.90
2023-09-03T22:56:47.688Z,2.40
2023-09-03T22:59:14.869Z,1.85
2023-09-03T23:01:42.166Z,2.00
2023-09-03T23:04:09.642Z,1.77
2023-09-03T23:06:36.714Z,1.80
2023-09-03T23:09:03.821Z,2.08
2023-09-03T23:11:31.798Z,1.88
2023-09-03T23:13:58.789Z,1.90
2023-09-03T23:16:25.825Z,1.92
2023-09-03T23:18:52.865Z,2.08
2023-09-03T23:21:20.158Z,2.00
2023-09-03T23:23:47.173Z,2.20
2023-09-03T23:26:16.870Z,2.00
2023-09-03T23:28:43.903Z,1.92
2023-09-03T23:31:11.015Z,2.40
2023-09-03T23:33:38.102Z,2.30
2023-09-03T23:36:05.406Z,2.28
2023-09-03T23:38:33.833Z,2.05
2023-09-03T23:41:00.895Z,2.35
2023-09-03T23:43:27.852Z,2.33
2023-09-03T23:45:54.831Z,2.00
2023-09-03T23:48:22.225Z,2.38
2023-09-03T23:50:49.538Z,2.10
2023-09-03T23:53:16.501Z,2.22
2023-09-03T23:55:43.527Z,2.25
2023-09-03T23:58:10.642Z,2.00
